Time;durP1;ratioP1;P1;durP2;ratioP2;P2;SDS_P1;SDS_P2;PMS_P1;PMS_P2;Temp;Humidity;BMP_temperature;BMP_pressure;BME280_temperature;BME280_humidity;BME280_pressure;Samples;Min_cycle;Max_cycle;Signal;HPM_P1;HPM_P2
2022/04/19 00:00:11;;;;;;;2.17;2.00;;;6.80;66.10;;;;;;5083877;28;20674;-65
2022/04/19 00:02:37;;;;;;;2.00;1.90;;;6.70;67.10;;;;;;5085539;28;20194;-65
2022/04/19 00:05:03;;;;;;;2.33;2.10;;;6.70;67.10;;;;;;5083721;28;20630;-63
2022/04/19 00:07:29;;;;;;;1.77;1.50;;;6.70;67.70;;;;;;5085861;28;20174;-62
2022/04/19 00:09:54;;;;;;;3.07;2.27;;;6.70;68.30;;;;;;5083854;28;20244;-62
2022/04/19 00:12:20;;;;;;;2.30;2.00;;;6.70;69.20;;;;;;5086303;28;20273;-62
2022/04/19 00:14:47;;;;;;;1.80;1.70;;;6.70;69.30;;;;;;5083153;28;20240;-61
2022/04/19 00:17:13;;;;;;;1.70;1.60;;;6.60;70.30;;;;;;5085298;28;20310;-61
2022/04/19 00:19:38;;;;;;;1.80;1.70;;;6.50;70.90;;;;;;5083787;28;20679;-62
2022/04/19 00:22:04;;;;;;;2.30;2.10;;;6.50;71.80;;;;;;5085809;28;20199;-63
2022/04/19 00:24:29;;;;;;;3.23;1.80;;;6.50;72.60;;;;;;5083858;28;20198;-62
2022/04/19 00:26:55;;;;;;;4.57;1.93;;;6.50;73.30;;;;;;5085379;28;20328;-58
2022/04/19 00:29:21;;;;;;;1.93;1.73;;;6.60;73.20;;;;;;5083278;28;20266;-59
2022/04/19 00:31:46;;;;;;;1.53;1.43;;;6.60;73.40;;;;;;5086421;28;20178;-57
2022/04/19 00:34:12;;;;;;;2.73;1.73;;;6.40;74.60;;;;;;5085536;28;20706;-57
2022/04/19 00:36:37;;;;;;;1.93;1.37;;;6.40;76.20;;;;;;5083624;28;20208;-72
2022/04/19 00:39:04;;;;;;;1.50;1.40;;;6.50;76.10;;;;;;5085462;28;20196;-71
2022/04/19 00:41:29;;;;;;;2.10;1.90;;;6.40;77.70;;;;;;5065042;28;20291;-71
2022/04/19 00:43:55;;;;;;;12.37;2.33;;;6.40;76.80;;;;;;5078786;28;20273;-72
2022/04/19 00:46:21;;;;;;;3.57;1.83;;;6.40;78.30;;;;;;5084076;28;20421;-67
2022/04/19 00:48:46;;;;;;;1.73;1.63;;;6.40;78.40;;;;;;5085466;28;20220;-67
2022/04/19 00:51:13;;;;;;;1.97;1.80;;;6.40;79.40;;;;;;5083393;28;20739;-67
2022/04/19 00:53:40;;;;;;;2.60;1.80;;;6.40;79.10;;;;;;5085366;28;20190;-67
2022/04/19 00:56:07;;;;;;;2.57;1.90;;;6.40;79.50;;;;;;5083185;28;20209;-67
2022/04/19 00:58:33;;;;;;;4.30;2.40;;;6.40;80.20;;;;;;5085232;28;20201;-65
2022/04/19 01:00:59;;;;;;;2.63;2.23;;;6.30;81.40;;;;;;5083162;28;20201;-68
2022/04/19 01:03:25;;;;;;;2.13;1.80;;;6.30;81.70;;;;;;5084850;28;20225;-63
2022/04/19 01:05:53;;;;;;;2.33;1.87;;;6.30;82.50;;;;;;5082784;28;20358;-60
2022/04/19 01:08:19;;;;;;;2.03;1.80;;;6.40;83.10;;;;;;5084399;28;20294;-61
2022/04/19 01:10:45;;;;;;;1.93;1.67;;;6.20;84.90;;;;;;5082877;28;20618;-59
2022/04/19 01:13:17;;;;;;;3.60;2.00;;;6.40;84.40;;;;;;5080936;28;20193;-59
2022/04/19 01:15:45;;;;;;;4.00;1.93;;;6.40;84.80;;;;;;5083700;28;20216;-60
2022/04/19 01:18:12;;;;;;;2.60;1.80;;;6.40;84.60;;;;;;5084638;28;20222;-60
2022/04/19 01:20:38;;;;;;;1.60;1.50;;;6.30;85.70;;;;;;5083466;28;20205;-61
2022/04/19 01:23:04;;;;;;;1.60;1.50;;;6.30;86.60;;;;;;5084967;28;20205;-61
2022/04/19 01:25:29;;;;;;;1.87;1.67;;;6.10;89.00;;;;;;5081134;28;20224;-60
2022/04/19 01:27:55;;;;;;;2.90;1.70;;;6.20;88.60;;;;;;5078620;28;20185;-63
2022/04/19 01:30:21;;;;;;;2.17;1.97;;;6.30;88.60;;;;;;5083057;28;20231;-61
2022/04/19 01:32:46;;;;;;;3.43;2.37;;;6.20;89.10;;;;;;5084920;28;20201;-60
2022/04/19 01:35:17;;;;;;;4.20;2.07;;;6.20;90.60;;;;;;5083289;28;20209;-64
2022/04/19 01:37:48;;;;;;;1.80;1.70;;;6.00;91.30;;;;;;5085211;28;20193;-64
2022/04/19 01:40:17;;;;;;;2.17;1.87;;;6.00;91.70;;;;;;5086351;28;20284;-60
2022/04/19 01:42:52;;;;;;;2.20;1.97;;;5.90;92.30;;;;;;5088203;28;20200;-60
2022/04/19 01:45:25;;;;;;;3.13;1.90;;;5.90;92.70;;;;;;5086486;28;20254;-60
2022/04/19 01:47:53;;;;;;;2.77;1.70;;;5.90;92.60;;;;;;5087740;28;20242;-59
2022/04/19 01:50:20;;;;;;;2.10;1.80;;;6.00;92.80;;;;;;5086430;28;20215;-60
2022/04/19 01:52:46;;;;;;;2.73;2.53;;;5.90;93.60;;;;;;5088383;28;20200;-59
2022/04/19 01:55:14;;;;;;;2.73;1.77;;;5.80;94.10;;;;;;5087306;28;20204;-60
2022/04/19 01:57:41;;;;;;;2.07;1.87;;;5.80;94.50;;;;;;5089144;28;20224;-59
2022/04/19 02:00:07;;;;;;;2.33;2.10;;;5.90;94.60;;;;;;5086745;28;20204;-59
2022/04/19 02:02:33;;;;;;;3.67;2.50;;;5.80;95.40;;;;;;5088834;28;20189;-59
2022/04/19 02:04:58;;;;;;;2.53;2.27;;;5.80;95.30;;;;;;5086583;28;20209;-59
2022/04/19 02:07:24;;;;;;;2.10;2.00;;;5.80;95.50;;;;;;5088376;28;20189;-59
2022/04/19 02:09:49;;;;;;;2.50;2.03;;;5.80;95.40;;;;;;5086099;28;20350;-59
2022/04/19 02:12:15;;;;;;;2.90;2.47;;;5.90;94.90;;;;;;5088357;28;20549;-59
2022/04/19 02:14:41;;;;;;;1.97;1.87;;;5.90;95.20;;;;;;5070782;28;20678;-59
2022/04/19 02:17:09;;;;;;;2.20;1.90;;;5.70;96.00;;;;;;5088402;28;20185;-60
2022/04/19 02:19:37;;;;;;;1.93;1.83;;;5.70;96.60;;;;;;5086485;28;20201;-60
2022/04/19 02:22:05;;;;;;;2.37;2.17;;;5.70;96.30;;;;;;5088216;28;20856;-60
2022/04/19 02:24:31;;;;;;;3.17;2.03;;;5.80;96.80;;;;;;5086317;28;20208;-60
2022/04/19 02:26:57;;;;;;;4.03;2.30;;;5.80;96.70;;;;;;5088081;28;20237;-60
2022/04/19 02:29:25;;;;;;;4.60;2.70;;;5.70;96.60;;;;;;5085807;28;20212;-60
2022/04/19 02:31:50;;;;;;;2.87;2.20;;;5.60;97.30;;;;;;5088194;28;20182;-60
2022/04/19 02:34:18;;;;;;;1.67;1.57;;;5.70;96.90;;;;;;5087880;28;20257;-60
2022/04/19 02:36:44;;;;;;;4.20;2.00;;;5.70;96.90;;;;;;5088393;28;20245;-60
2022/04/19 02:39:10;;;;;;;2.47;1.77;;;5.80;96.60;;;;;;5087068;28;20366;-59
2022/04/19 02:41:36;;;;;;;2.40;2.20;;;5.70;96.20;;;;;;5086537;28;20723;-59
2022/04/19 02:44:02;;;;;;;3.40;2.20;;;5.80;96.20;;;;;;5085359;28;20212;-59
2022/04/19 02:46:29;;;;;;;2.87;2.20;;;5.90;95.90;;;;;;5085005;28;20209;-59
2022/04/19 02:48:56;;;;;;;3.13;2.93;;;5.80;96.00;;;;;;5086292;28;20244;-59
2022/04/19 02:51:21;;;;;;;2.53;2.10;;;5.60;96.70;;;;;;5086634;28;20280;-59
2022/04/19 02:53:47;;;;;;;3.80;2.20;;;5.50;97.00;;;;;;5085479;28;20281;-59
2022/04/19 02:56:12;;;;;;;2.40;2.10;;;5.50;97.20;;;;;;5086964;28;20220;-59
2022/04/19 02:58:38;;;;;;;3.00;2.53;;;5.60;97.00;;;;;;5085701;28;20205;-59
2022/04/19 03:01:04;;;;;;;2.80;2.30;;;5.50;97.20;;;;;;5087404;28;20727;-58
2022/04/19 03:03:29;;;;;;;4.70;2.57;;;5.40;97.60;;;;;;5085479;28;20212;-58
2022/04/19 03:05:56;;;;;;;3.07;2.20;;;5.60;97.30;;;;;;5087577;28;20197;-59
2022/04/19 03:08:22;;;;;;;2.43;2.07;;;5.70;96.60;;;;;;5085331;28;20763;-59
2022/04/19 03:10:49;;;;;;;3.23;2.43;;;5.70;96.30;;;;;;5087535;28;20190;-59
2022/04/19 03:13:16;;;;;;;3.27;2.23;;;5.60;97.50;;;;;;5085507;28;20240;-61
2022/04/19 03:15:42;;;;;;;4.83;3.40;;;5.50;98.00;;;;;;5087355;28;20189;-61
2022/04/19 03:18:07;;;;;;;3.00;2.03;;;5.40;97.50;;;;;;5084823;28;20617;-61
2022/04/19 03:20:33;;;;;;;2.93;2.30;;;5.50;97.60;;;;;;5087289;28;20234;-61
2022/04/19 03:28:27;;;;;;;2.57;2.37;;;5.30;97.90;;;;;;5079174;28;20260;-60
2022/04/19 03:30:52;;;;;;;4.10;2.50;;;5.20;99.00;;;;;;5079913;28;20217;-60
2022/04/19 03:33:18;;;;;;;2.60;2.40;;;5.20;98.80;;;;;;5086295;28;20208;-61
2022/04/19 03:35:43;;;;;;;3.13;2.20;;;5.20;98.80;;;;;;5086981;28;20734;-61
2022/04/19 03:38:09;;;;;;;3.00;1.73;;;5.20;99.10;;;;;;5084787;28;20197;-59
2022/04/19 03:40:35;;;;;;;3.10;2.80;;;5.00;99.90;;;;;;5071237;28;20282;-59
2022/04/19 03:43:04;;;;;;;4.57;2.50;;;5.10;99.40;;;;;;5085005;28;20227;-59
2022/04/19 03:45:30;;;;;;;2.33;2.13;;;4.90;99.90;;;;;;5086613;28;20229;-59
2022/04/19 03:47:55;;;;;;;2.80;2.27;;;4.90;99.90;;;;;;5084988;28;20239;-59
2022/04/19 03:50:21;;;;;;;2.47;2.27;;;4.90;99.90;;;;;;5087011;28;20284;-59
2022/04/19 03:52:46;;;;;;;3.27;1.90;;;4.80;99.90;;;;;;5084626;28;20201;-58
2022/04/19 03:55:12;;;;;;;2.07;1.90;;;4.80;99.90;;;;;;5086755;28;20220;-59
2022/04/19 03:57:38;;;;;;;2.70;2.17;;;4.80;99.90;;;;;;5084675;28;20251;-59
2022/04/19 04:00:04;;;;;;;2.70;1.93;;;4.80;99.90;;;;;;5086914;28;20636;-59
2022/04/19 04:02:31;;;;;;;2.93;2.53;;;4.80;99.90;;;;;;5084441;28;20355;-59
2022/04/19 04:04:57;;;;;;;2.87;2.27;;;4.80;99.90;;;;;;5086871;28;20181;-58
2022/04/19 04:07:26;;;;;;;4.20;2.37;;;4.70;99.90;;;;;;5084639;28;20220;-58
2022/04/19 04:09:52;;;;;;;3.13;2.60;;;4.70;99.90;;;;;;5086750;28;20205;-58
2022/04/19 04:12:17;;;;;;;2.80;2.13;;;4.60;99.90;;;;;;5072885;28;20196;-58
2022/04/19 04:14:43;;;;;;;3.53;2.43;;;4.60;99.90;;;;;;5086599;28;20180;-59
2022/04/19 04:17:09;;;;;;;4.87;2.80;;;4.60;99.90;;;;;;5084133;28;20690;-59
2022/04/19 04:19:34;;;;;;;3.23;1.90;;;4.80;99.90;;;;;;5086899;28;20238;-59
2022/04/19 04:22:00;;;;;;;5.97;2.70;;;4.80;99.90;;;;;;5084544;28;20238;-59
2022/04/19 04:24:26;;;;;;;3.43;2.17;;;4.90;99.90;;;;;;5086187;28;20200;-59
2022/04/19 04:26:51;;;;;;;2.93;2.43;;;4.80;99.90;;;;;;5084189;28;20236;-59
2022/04/19 04:29:17;;;;;;;3.77;2.40;;;4.80;99.90;;;;;;5086127;28;20205;-60
2022/04/19 04:31:42;;;;;;;2.40;2.20;;;4.80;99.90;;;;;;5086232;28;20548;-60
2022/04/19 04:34:08;;;;;;;2.40;2.20;;;4.90;99.90;;;;;;5084381;28;20194;-59
2022/04/19 04:36:34;;;;;;;3.20;2.20;;;4.80;99.90;;;;;;5085913;28;20597;-60
2022/04/19 04:38:59;;;;;;;2.93;2.50;;;4.60;99.90;;;;;;5083494;28;20224;-59
2022/04/19 04:41:25;;;;;;;4.00;2.40;;;4.60;99.90;;;;;;5085030;28;20217;-60
2022/04/19 04:43:50;;;;;;;2.93;2.13;;;4.70;99.90;;;;;;5084258;28;20304;-60
2022/04/19 04:51:44;;;;;;;2.87;2.63;;;4.80;99.90;;;;;;5083543;28;20185;-59
2022/04/19 04:54:10;;;;;;;5.00;2.30;;;4.80;99.90;;;;;;5086021;28;20182;-59
2022/04/19 04:56:35;;;;;;;4.73;2.30;;;4.80;99.90;;;;;;5085721;28;20288;-60
2022/04/19 04:59:00;;;;;;;5.17;2.40;;;4.80;99.90;;;;;;5084023;28;20220;-59
2022/04/19 05:01:26;;;;;;;2.60;2.40;;;4.80;99.90;;;;;;5085520;28;20211;-62
2022/04/19 05:03:51;;;;;;;3.70;3.20;;;5.00;99.90;;;;;;5082405;28;20217;-61
2022/04/19 05:06:17;;;;;;;3.70;2.97;;;5.00;99.90;;;;;;5085502;28;20197;-61
2022/04/19 05:08:43;;;;;;;3.53;3.00;;;5.10;99.90;;;;;;5083727;28;20296;-60
2022/04/19 05:11:08;;;;;;;6.47;3.17;;;5.10;99.90;;;;;;5085486;28;20193;-61
2022/04/19 05:13:33;;;;;;;4.17;3.33;;;5.00;99.90;;;;;;5085342;28;20200;-60
2022/04/19 05:16:00;;;;;;;9.77;4.20;;;5.10;99.90;;;;;;5091986;28;20561;-59
2022/04/19 05:18:26;;;;;;;4.30;3.57;;;5.10;99.90;;;;;;5090860;28;20205;-60
2022/04/19 05:20:52;;;;;;;3.73;3.00;;;5.10;99.90;;;;;;5073914;28;20185;-60
2022/04/19 05:23:18;;;;;;;3.60;3.30;;;5.20;99.90;;;;;;5090785;28;20200;-60
2022/04/19 05:25:43;;;;;;;5.17;3.13;;;5.30;99.90;;;;;;5091868;28;20221;-59
2022/04/19 05:28:09;;;;;;;4.23;3.40;;;5.20;99.90;;;;;;5090148;28;20224;-60
2022/04/19 05:30:35;;;;;;;3.90;3.30;;;5.30;99.90;;;;;;5092131;28;20193;-60
2022/04/19 05:33:00;;;;;;;3.90;3.07;;;5.30;99.90;;;;;;5081363;28;20201;-60
2022/04/19 05:35:26;;;;;;;5.23;3.60;;;5.40;99.90;;;;;;5092002;28;20276;-60
2022/04/19 05:37:52;;;;;;;3.50;3.20;;;5.50;99.90;;;;;;5090014;28;20201;-61
2022/04/19 05:40:18;;;;;;;5.27;3.90;;;5.60;99.90;;;;;;5085551;28;20199;-59
2022/04/19 05:42:43;;;;;;;4.60;3.60;;;5.70;99.90;;;;;;5089955;28;20568;-59
2022/04/19 05:45:09;;;;;;;4.27;3.40;;;5.60;99.90;;;;;;5091595;28;20223;-60
2022/04/19 05:47:35;;;;;;;3.87;3.13;;;5.60;99.90;;;;;;5090028;28;20197;-59
2022/04/19 05:50:00;;;;;;;4.30;3.30;;;5.60;99.90;;;;;;5092080;28;20205;-59
2022/04/19 05:52:26;;;;;;;4.97;3.83;;;5.50;99.90;;;;;;5089664;28;20197;-59
2022/04/19 05:54:51;;;;;;;7.73;4.60;;;5.50;99.90;;;;;;5092270;28;20506;-59
2022/04/19 05:57:17;;;;;;;4.50;3.50;;;5.70;99.90;;;;;;5090306;28;20189;-60
2022/04/19 05:59:42;;;;;;;5.37;4.10;;;5.90;99.90;;;;;;5092191;28;20254;-59
2022/04/19 06:04:52;;;;;;;8.20;3.47;;;5.90;99.90;;;;;;5074325;28;20209;-59
2022/04/19 06:07:22;;;;;;;4.33;3.30;;;6.10;99.90;;;;;;5089747;28;20208;-60
2022/04/19 06:09:47;;;;;;;5.90;3.27;;;6.20;99.90;;;;;;5091864;28;20208;-59
2022/04/19 06:12:13;;;;;;;3.40;3.10;;;6.20;99.90;;;;;;5089689;28;20628;-59
2022/04/19 06:14:39;;;;;;;6.93;3.63;;;6.30;99.90;;;;;;5091804;28;20189;-61
2022/04/19 06:17:05;;;;;;;4.07;3.67;;;6.40;99.90;;;;;;5081192;28;20190;-61
2022/04/19 06:19:31;;;;;;;5.03;3.20;;;6.50;99.90;;;;;;5091986;28;20342;-61
2022/04/19 06:21:59;;;;;;;5.90;3.73;;;6.60;99.90;;;;;;5090018;28;20751;-61
2022/04/19 06:24:25;;;;;;;5.53;3.87;;;6.60;99.90;;;;;;5091739;28;20169;-61
2022/04/19 06:26:51;;;;;;;7.40;3.50;;;6.60;99.90;;;;;;5085019;28;20241;-61
2022/04/19 06:29:16;;;;;;;5.27;3.50;;;6.60;99.90;;;;;;5088289;28;20213;-61
2022/04/19 06:31:43;;;;;;;5.20;3.47;;;6.70;99.90;;;;;;5088281;28;20189;-61
2022/04/19 06:34:09;;;;;;;5.00;3.60;;;6.90;99.30;;;;;;5086917;28;20234;-61
2022/04/19 06:36:34;;;;;;;4.30;3.67;;;7.00;99.40;;;;;;5088215;28;20574;-63
2022/04/19 06:39:00;;;;;;;4.90;3.10;;;6.90;99.70;;;;;;5086704;28;20201;-59
2022/04/19 06:41:25;;;;;;;3.50;3.20;;;7.10;98.90;;;;;;5088087;28;20288;-60
2022/04/19 06:43:51;;;;;;;5.73;3.60;;;7.30;98.30;;;;;;5086415;28;20561;-59
2022/04/19 06:46:17;;;;;;;4.10;3.80;;;7.40;98.40;;;;;;5087826;28;20552;-60
2022/04/19 06:48:43;;;;;;;5.27;3.17;;;7.30;97.90;;;;;;5084640;28;20210;-60
2022/04/19 06:51:09;;;;;;;5.60;3.67;;;7.40;97.60;;;;;;5087109;28;20264;-60
2022/04/19 06:53:35;;;;;;;6.43;3.40;;;7.50;97.80;;;;;;5085737;28;20190;-63
2022/04/19 06:56:00;;;;;;;4.67;3.27;;;7.60;97.50;;;;;;5087778;28;20611;-62
2022/04/19 06:58:26;;;;;;;4.23;3.53;;;7.60;97.30;;;;;;5080581;28;20284;-61
2022/04/19 07:00:51;;;;;;;3.83;3.37;;;7.60;97.00;;;;;;5087989;28;20185;-61
2022/04/19 07:03:17;;;;;;;4.03;3.10;;;7.80;96.70;;;;;;5086111;28;20199;-60
2022/04/19 07:05:42;;;;;;;6.23;3.83;;;7.90;96.60;;;;;;5087918;28;20690;-61
2022/04/19 07:08:09;;;;;;;5.37;3.67;;;7.90;96.60;;;;;;5086133;28;20259;-61
2022/04/19 07:10:35;;;;;;;4.67;3.77;;;8.00;96.40;;;;;;5082040;28;20189;-60
2022/04/19 07:13:00;;;;;;;5.47;4.17;;;8.10;95.90;;;;;;5085883;28;20202;-59
2022/04/19 07:15:26;;;;;;;4.77;3.60;;;8.20;94.20;;;;;;5087739;28;20227;-60
2022/04/19 07:17:51;;;;;;;4.37;3.97;;;8.40;94.10;;;;;;5085396;28;20280;-60
2022/04/19 07:28:35;;;;;;;4.77;3.50;;;8.50;93.80;;;;;;5082993;28;20217;-61
2022/04/19 07:31:03;;;;;;;6.10;3.90;;;8.70;93.20;;;;;;5076195;28;20250;-60
2022/04/19 07:33:37;;;;;;;4.43;3.93;;;8.70;93.00;;;;;;5079529;28;20281;-59
2022/04/19 07:36:02;;;;;;;7.80;3.93;;;9.00;91.90;;;;;;5079502;28;20187;-60
2022/04/19 07:38:28;;;;;;;3.70;3.37;;;9.20;91.80;;;;;;5084217;28;20797;-62
2022/04/19 07:40:56;;;;;;;6.03;3.57;;;9.10;91.10;;;;;;5086816;28;20541;-62
2022/04/19 07:43:21;;;;;;;7.17;3.70;;;9.20;90.20;;;;;;5084125;28;20198;-61
2022/04/19 07:45:47;;;;;;;3.13;2.77;;;9.20;89.30;;;;;;5086220;28;20281;-60
2022/04/19 07:48:13;;;;;;;7.93;3.27;;;9.20;88.70;;;;;;5084269;28;20745;-61
2022/04/19 07:50:39;;;;;;;3.37;3.07;;;9.40;86.40;;;;;;5085979;28;20538;-61
2022/04/19 07:53:05;;;;;;;2.97;2.63;;;9.30;85.50;;;;;;5084508;28;20241;-61
2022/04/19 07:55:30;;;;;;;5.07;2.73;;;9.30;85.90;;;;;;5086539;28;20233;-60
2022/04/19 07:57:59;;;;;;;5.03;3.00;;;9.50;83.50;;;;;;5083869;28;20191;-63
2022/04/19 08:00:27;;;;;;;5.80;2.80;;;9.60;83.20;;;;;;5085743;28;20274;-65
2022/04/19 08:02:54;;;;;;;3.67;3.23;;;9.60;83.10;;;;;;5083992;28;20211;-65
2022/04/19 08:05:20;;;;;;;2.87;2.57;;;9.70;82.80;;;;;;5085830;28;20397;-63
2022/04/19 08:07:48;;;;;;;2.73;2.23;;;9.80;80.20;;;;;;5083888;28;20212;-61
2022/04/19 08:10:13;;;;;;;4.00;2.77;;;10.10;76.30;;;;;;5085608;28;20256;-61
2022/04/19 08:12:39;;;;;;;3.03;2.60;;;10.20;77.50;;;;;;5083800;28;20664;-61
2022/04/19 08:15:05;;;;;;;3.97;2.47;;;10.20;77.10;;;;;;5085848;28;20177;-62
2022/04/19 08:17:32;;;;;;;4.50;2.63;;;10.20;78.10;;;;;;5083248;28;20199;-62
2022/04/19 08:19:58;;;;;;;3.67;2.87;;;10.40;77.20;;;;;;5085593;28;20186;-72
2022/04/19 08:22:24;;;;;;;5.10;2.67;;;10.40;77.50;;;;;;5083978;28;20203;-64
2022/04/19 08:24:49;;;;;;;2.57;2.20;;;10.50;75.10;;;;;;5083692;28;20183;-64
2022/04/19 08:27:16;;;;;;;2.33;2.13;;;10.60;74.10;;;;;;5083546;28;20240;-67
2022/04/19 08:29:43;;;;;;;3.33;1.90;;;10.70;72.70;;;;;;5085825;28;20215;-69
2022/04/19 08:32:09;;;;;;;2.50;2.10;;;10.80;72.60;;;;;;5084019;28;20197;-67
2022/04/19 08:34:34;;;;;;;2.30;2.03;;;10.80;73.60;;;;;;5085893;28;20199;-67
2022/04/19 08:37:02;;;;;;;3.17;2.27;;;10.90;71.60;;;;;;5078316;28;20193;-67
2022/04/19 08:39:28;;;;;;;5.23;2.23;;;11.10;71.10;;;;;;5085729;28;20851;-67
2022/04/19 08:41:53;;;;;;;2.90;2.00;;;11.10;70.60;;;;;;5082780;28;20199;-72
2022/04/19 08:44:19;;;;;;;2.80;1.87;;;11.10;71.50;;;;;;5077373;28;20282;-66
2022/04/19 08:46:45;;;;;;;2.87;2.00;;;11.00;69.60;;;;;;5083657;28;20247;-66
2022/04/19 08:49:12;;;;;;;3.23;2.27;;;11.00;70.50;;;;;;5083509;28;20207;-68
2022/04/19 08:51:40;;;;;;;2.23;1.90;;;11.10;69.70;;;;;;5084922;28;20250;-69
2022/04/19 08:59:38;;;;;;;3.00;2.37;;;11.00;68.90;;;;;;5084578;28;20197;-69
2022/04/19 09:02:04;;;;;;;4.13;2.07;;;11.30;70.30;;;;;;5081051;28;20196;-67
2022/04/19 09:04:30;;;;;;;4.03;2.43;;;11.40;71.00;;;;;;5084464;28;20188;-67
2022/04/19 09:06:58;;;;;;;2.10;1.80;;;11.60;69.90;;;;;;5083292;28;20200;-68
2022/04/19 09:09:25;;;;;;;5.73;2.47;;;11.70;68.40;;;;;;5067591;28;20216;-70
2022/04/19 09:11:53;;;;;;;3.93;2.10;;;11.60;69.50;;;;;;5083463;28;20228;-69
2022/04/19 09:14:19;;;;;;;2.33;2.13;;;11.80;68.50;;;;;;5084474;28;20651;-68
2022/04/19 09:16:46;;;;;;;4.23;1.70;;;11.90;68.10;;;;;;5080730;28;20222;-68
2022/04/19 09:19:38;;;;;;;3.07;1.77;;;11.90;67.80;;;;;;5082646;28;20271;-68
2022/04/19 09:22:04;;;;;;;2.77;1.90;;;12.10;68.10;;;;;;5078852;28;20196;-68
2022/04/19 09:24:31;;;;;;;1.80;1.60;;;12.20;65.90;;;;;;5078861;28;21026;-67
2022/04/19 09:26:57;;;;;;;1.57;1.47;;;12.10;67.60;;;;;;5065053;28;20227;-68
2022/04/19 09:29:24;;;;;;;4.67;1.80;;;12.20;66.40;;;;;;5085556;28;20606;-68
2022/04/19 09:31:58;;;;;;;1.77;1.67;;;12.30;66.40;;;;;;5071674;28;20262;-68
2022/04/19 09:34:34;;;;;;;2.40;1.57;;;12.40;64.40;;;;;;5086051;28;20918;-69
2022/04/19 09:37:07;;;;;;;1.63;1.20;;;12.50;64.40;;;;;;5083357;28;20185;-69
2022/04/19 09:39:36;;;;;;;3.77;1.30;;;12.50;64.60;;;;;;5084675;28;20188;-67
2022/04/19 09:42:08;;;;;;;1.43;1.33;;;12.60;65.20;;;;;;5082771;28;20280;-68
2022/04/19 09:44:41;;;;;;;2.43;1.53;;;12.90;64.20;;;;;;5082240;28;20182;-68
2022/04/19 09:47:09;;;;;;;1.50;1.27;;;13.00;64.00;;;;;;5082303;28;20284;-68
2022/04/19 09:49:42;;;;;;;3.47;1.90;;;12.90;64.00;;;;;;5084549;28;20201;-65
2022/04/19 09:52:07;;;;;;;1.97;1.50;;;12.90;62.10;;;;;;5081765;28;20193;-68
2022/04/19 09:54:33;;;;;;;1.53;1.43;;;13.10;61.80;;;;;;5084905;28;20759;-69
2022/04/19 09:57:08;;;;;;;1.60;1.50;;;13.10;59.80;;;;;;5082535;28;20193;-69
2022/04/19 09:59:41;;;;;;;2.70;2.07;;;13.20;61.20;;;;;;5082801;28;20674;-69
2022/04/19 10:10:28;;;;;;;2.93;1.60;;;13.40;59.00;;;;;;5086516;28;20216;-69
2022/04/19 10:12:56;;;;;;;1.80;1.60;;;13.50;59.10;;;;;;5086060;28;20616;-68
2022/04/19 10:15:22;;;;;;;1.10;1.10;;;13.50;58.50;;;;;;5086910;28;20193;-69
2022/04/19 10:17:48;;;;;;;2.40;1.17;;;13.50;57.70;;;;;;5082722;28;20561;-69
2022/04/19 10:20:15;;;;;;;2.03;1.93;;;13.40;57.90;;;;;;5087880;28;20197;-69
2022/04/19 10:22:48;;;;;;;1.23;1.13;;;13.60;58.30;;;;;;5077387;28;20299;-67
2022/04/19 10:25:13;;;;;;;1.13;1.10;;;13.60;59.30;;;;;;5088070;28;20709;-69
2022/04/19 10:27:40;;;;;;;1.80;1.00;;;14.00;57.80;;;;;;5085343;28;20233;-68
2022/04/19 10:30:07;;;;;;;4.10;1.47;;;14.30;57.50;;;;;;5088044;28;20209;-70
2022/04/19 10:32:36;;;;;;;2.27;1.10;;;14.40;57.30;;;;;;5079562;28;20720;-68
2022/04/19 10:35:05;;;;;;;1.37;1.27;;;14.50;55.30;;;;;;5088062;28;20190;-68
2022/04/19 10:37:30;;;;;;;1.83;1.23;;;14.60;55.80;;;;;;5085756;28;20198;-67
2022/04/19 10:39:59;;;;;;;1.27;1.17;;;14.70;55.80;;;;;;5069714;28;20196;-68
2022/04/19 10:42:29;;;;;;;5.23;1.37;;;14.90;56.00;;;;;;5085631;28;20193;-67
2022/04/19 10:44:55;;;;;;;1.60;1.50;;;15.00;56.10;;;;;;5087706;28;20636;-66
2022/04/19 10:47:26;;;;;;;2.43;1.10;;;15.20;55.20;;;;;;5084453;28;20216;-68
2022/04/19 10:50:07;;;;;;;0.93;0.93;;;15.50;53.10;;;;;;5067955;28;20204;-67
2022/04/19 10:52:36;;;;;;;1.33;1.17;;;15.10;52.60;;;;;;5083251;28;20276;-69
2022/04/19 10:55:09;;;;;;;1.30;1.13;;;14.90;52.40;;;;;;5085414;28;20184;-68
2022/04/19 10:58:06;;;;;;;9.63;1.43;;;14.80;54.00;;;;;;5083698;28;20284;-67
2022/04/19 11:00:35;;;;;;;1.30;1.20;;;14.60;53.50;;;;;;5077888;28;20655;-72
2022/04/19 11:03:02;;;;;;;1.60;1.33;;;14.60;53.20;;;;;;5085323;28;20209;-67
2022/04/19 11:05:43;;;;;;;2.00;1.10;;;14.70;52.80;;;;;;5087310;28;20579;-68
2022/04/19 11:08:29;;;;;;;1.30;1.20;;;14.60;52.90;;;;;;5077204;28;20251;-67
2022/04/19 11:11:02;;;;;;;2.03;1.10;;;14.40;53.10;;;;;;5086597;28;20197;-67
2022/04/19 11:13:38;;;;;;;1.77;1.50;;;14.20;53.60;;;;;;5084880;28;20202;-70
2022/04/19 11:16:07;;;;;;;1.80;1.60;;;14.20;53.00;;;;;;5076459;28;20178;-72
2022/04/19 11:18:53;;;;;;;2.10;1.63;;;14.30;53.30;;;;;;5085889;28;20205;-71
2022/04/19 11:21:52;;;;;;;7.03;1.50;;;14.60;53.10;;;;;;5078726;28;20196;-66
2022/04/19 11:24:55;;;;;;;2.83;1.20;;;14.50;52.70;;;;;;5073822;28;20235;-67
2022/04/19 11:27:20;;;;;;;2.20;2.00;;;14.30;53.20;;;;;;5083503;28;20229;-67
2022/04/19 11:29:47;;;;;;;2.30;1.23;;;14.10;53.20;;;;;;5086589;28;20216;-69
2022/04/19 11:32:19;;;;;;;1.33;1.23;;;14.10;52.80;;;;;;5084600;28;20193;-68
2022/04/19 11:34:57;;;;;;;2.63;1.60;;;14.20;52.70;;;;;;5086117;28;20178;-67
2022/04/19 11:37:23;;;;;;;1.50;1.40;;;14.60;53.80;;;;;;5083856;28;20284;-67
2022/04/19 11:48:03;;;;;;;2.13;1.23;;;16.20;51.30;;;;;;5077850;28;20252;-67
2022/04/19 11:50:31;;;;;;;3.13;1.60;;;16.70;51.30;;;;;;5086200;28;20209;-68
2022/04/19 11:53:00;;;;;;;1.77;1.13;;;16.80;50.90;;;;;;5084703;28;20205;-67
2022/04/19 11:55:27;;;;;;;1.80;1.07;;;16.90;50.40;;;;;;5072275;28;20183;-69
2022/04/19 11:58:07;;;;;;;1.67;1.43;;;17.10;50.40;;;;;;5083716;28;20201;-69
2022/04/19 12:00:33;;;;;;;1.50;1.40;;;17.40;51.90;;;;;;5086535;28;20242;-71
2022/04/19 12:03:02;;;;;;;2.50;1.70;;;18.00;50.10;;;;;;5066384;28;20233;-73
2022/04/19 12:05:30;;;;;;;2.20;1.33;;;17.90;48.60;;;;;;5083302;28;20197;-71
2022/04/19 12:07:56;;;;;;;2.67;1.37;;;17.80;48.20;;;;;;5084081;28;20207;-70
2022/04/19 12:10:23;;;;;;;5.67;1.80;;;17.30;48.20;;;;;;5079120;28;20213;-71
2022/04/19 12:12:52;;;;;;;4.07;1.93;;;17.40;49.80;;;;;;5083871;28;20205;-70
2022/04/19 12:15:37;;;;;;;136.87;125.60;;;16.90;48.70;;;;;;5069239;28;20230;-69
2022/04/19 12:18:03;;;;;;;1.73;1.63;;;16.20;49.70;;;;;;5084135;28;20206;-69
2022/04/19 12:20:28;;;;;;;3.30;2.13;;;15.80;51.50;;;;;;5085830;28;20189;-68
2022/04/19 12:22:54;;;;;;;1.70;1.60;;;15.90;52.80;;;;;;5083231;28;20737;-70
2022/04/19 12:25:25;;;;;;;2.93;1.57;;;16.20;52.00;;;;;;5085188;28;20202;-68
2022/04/19 12:27:52;;;;;;;2.73;1.50;;;16.40;51.50;;;;;;5080707;28;20209;-69
2022/04/19 12:30:18;;;;;;;2.73;2.47;;;16.40;51.00;;;;;;5085787;28;20749;-69
2022/04/19 12:32:55;;;;;;;2.03;1.40;;;17.10;53.70;;;;;;5083728;28;20200;-70
2022/04/19 12:35:28;;;;;;;2.80;1.50;;;17.70;51.20;;;;;;5086015;28;20268;-69
2022/04/19 12:38:06;;;;;;;2.67;1.83;;;17.60;50.20;;;;;;5083737;28;20208;-70
2022/04/19 12:40:33;;;;;;;3.60;1.70;;;17.40;50.60;;;;;;5085575;28;20189;-69
2022/04/19 12:42:58;;;;;;;4.50;1.83;;;17.00;51.20;;;;;;5081624;28;20247;-70
2022/04/19 12:45:31;;;;;;;1.83;1.73;;;16.60;51.40;;;;;;5070035;28;20224;-71
2022/04/19 12:47:58;;;;;;;2.30;1.77;;;16.50;51.40;;;;;;5073448;28;20686;-70
2022/04/19 12:50:24;;;;;;;3.73;1.40;;;17.10;52.00;;;;;;5085604;28;20215;-70
2022/04/19 12:52:50;;;;;;;3.10;1.63;;;17.40;50.50;;;;;;5075759;28;20206;-71
2022/04/19 12:55:15;;;;;;;2.00;1.67;;;18.20;51.30;;;;;;5085144;28;20192;-68
2022/04/19 12:57:42;;;;;;;1.90;1.80;;;18.20;49.50;;;;;;5083070;28;20217;-70
2022/04/19 13:00:09;;;;;;;1.97;1.30;;;18.50;48.90;;;;;;5085357;28;20678;-70
2022/04/19 13:02:36;;;;;;;2.23;1.73;;;19.20;48.90;;;;;;5083647;28;20204;-69
2022/04/19 13:05:02;;;;;;;2.83;1.57;;;19.30;48.40;;;;;;5085983;28;20216;-69
2022/04/19 13:13:01;;;;;;;7.60;7.27;;;19.90;47.70;;;;;;5078985;28;20216;-71
2022/04/19 13:15:31;;;;;;;1.30;1.20;;;20.10;46.60;;;;;;5084866;28;20504;-72
2022/04/19 13:17:56;;;;;;;1.67;1.30;;;20.50;46.60;;;;;;5080825;28;20288;-70
2022/04/19 13:20:22;;;;;;;4.93;1.57;;;20.00;46.10;;;;;;5084872;28;20666;-71
2022/04/19 13:22:47;;;;;;;2.67;2.20;;;19.80;46.10;;;;;;5083019;28;20211;-72
2022/04/19 13:25:13;;;;;;;2.43;1.17;;;20.20;46.10;;;;;;5081660;28;20189;-75
2022/04/19 13:27:38;;;;;;;1.70;1.60;;;20.60;45.20;;;;;;5074050;28;20446;-76
2022/04/19 13:30:06;;;;;;;1.77;1.30;;;20.80;45.40;;;;;;5085123;28;20261;-69
2022/04/19 13:32:32;;;;;;;3.50;1.20;;;20.30;44.60;;;;;;5082282;28;20203;-74
2022/04/19 13:34:58;;;;;;;2.83;1.87;;;19.70;45.00;;;;;;5086530;28;20186;-73
2022/04/19 13:38:23;;;;;;;3.67;2.57;;;19.20;46.10;;;;;;5086959;28;20273;-71
2022/04/19 13:40:21;;;;;;;4.03;1.50;;;18.60;46.30;;;;;;5088923;28;20188;-70
2022/04/19 13:42:48;;;;;;;3.87;1.60;;;18.20;46.40;;;;;;5087124;28;20206;-70